Time;durP1;ratioP1;P1;durP2;ratioP2;P2;SDS_P1;SDS_P2;PMS_P1;PMS_P2;Temp;Humidity;BMP_temperature;BMP_pressure;BME280_temperature;BME280_humidity;BME280_pressure;Samples;Min_cycle;Max_cycle;Signal;HPM_P1;HPM_P2
2023/03/28 00:00:23;;;;;;;3.00;1.60;;;;;;;0.62;100.00;98531.06;3176808;23;20025;-77
2023/03/28 00:01:59;;;;;;;0.95;0.85;;;;;;;0.51;100.00;98536.09;3177149;23;20025;-77
2023/03/28 00:03:17;;;;;;;1.73;0.93;;;;;;;0.48;100.00;98529.19;3177000;23;20077;-77
2023/03/28 00:04:33;;;;;;;2.67;1.33;;;;;;;0.61;100.00;98535.38;3176678;23;20097;-78
2023/03/28 00:05:54;;;;;;;5.18;1.90;;;;;;;0.88;100.00;98535.72;3176993;23;20704;-77
2023/03/28 00:07:09;;;;;;;3.15;1.55;;;;;;;0.81;100.00;98537.34;3176928;23;20026;-77
2023/03/28 00:08:27;;;;;;;1.90;1.33;;;;;;;0.79;100.00;98531.31;3176791;23;20516;-77
2023/03/28 00:09:43;;;;;;;3.10;1.30;;;;;;;0.74;100.00;98541.56;3177017;23;20119;-77
2023/03/28 00:11:04;;;;;;;2.50;1.50;;;;;;;0.68;100.00;98542.34;3176699;23;20025;-77
2023/03/28 00:12:19;;;;;;;1.83;1.02;;;;;;;0.74;100.00;98543.28;3176931;23;20081;-77
2023/03/28 00:13:35;;;;;;;1.52;1.08;;;;;;;0.78;100.00;98540.78;3176796;23;20152;-77
2023/03/28 00:14:51;;;;;;;4.05;1.70;;;;;;;1.04;100.00;98542.78;3177283;23;20480;-77
2023/03/28 00:16:11;;;;;;;3.80;1.60;;;;;;;1.08;100.00;98552.31;3176841;23;20033;-77
2023/03/28 00:17:26;;;;;;;2.38;1.30;;;;;;;1.20;100.00;98545.56;3176666;23;20025;-78
2023/03/28 00:18:42;;;;;;;2.22;1.33;;;;;;;1.08;100.00;98551.44;3160626;23;20364;-77
2023/03/28 00:19:57;;;;;;;3.33;1.52;;;;;;;1.17;100.00;98548.97;3167023;23;20021;-77
2023/03/28 00:21:22;;;;;;;3.08;1.20;;;;;;;1.24;100.00;98548.16;3176293;23;20105;-77
2023/03/28 00:22:38;;;;;;;3.38;1.00;;;;;;;1.06;100.00;98555.69;3177002;23;20165;-76
2023/03/28 00:23:55;;;;;;;2.20;1.20;;;;;;;1.08;100.00;98554.00;3176789;23;20026;-77
2023/03/28 00:25:12;;;;;;;3.58;1.45;;;;;;;1.11;100.00;98548.88;3176582;23;20072;-77
2023/03/28 00:26:31;;;;;;;2.40;1.30;;;;;;;1.12;100.00;98548.91;3176524;23;20112;-77
2023/03/28 00:27:46;;;;;;;2.00;1.27;;;;;;;1.21;100.00;98542.13;3176409;23;20028;-77
2023/03/28 00:29:04;;;;;;;2.97;1.30;;;;;;;1.20;100.00;98549.00;3176663;23;20049;-77
2023/03/28 00:30:20;;;;;;;2.10;1.30;;;;;;;1.01;100.00;98549.63;3176512;23;20523;-77
2023/03/28 00:31:37;;;;;;;2.47;1.42;;;;;;;1.14;100.00;98548.94;3177568;23;20021;-77
2023/03/28 00:32:53;;;;;;;4.40;1.50;;;;;;;1.13;100.00;98549.78;3176673;23;20045;-78
2023/03/28 00:34:09;;;;;;;1.50;1.10;;;;;;;1.17;100.00;98551.53;3176895;23;20334;-77
2023/03/28 00:35:24;;;;;;;3.22;1.70;;;;;;;1.24;100.00;98555.91;3176555;23;20025;-77
2023/03/28 00:36:40;;;;;;;3.70;1.73;;;;;;;1.22;100.00;98549.88;3176794;23;20025;-77
2023/03/28 00:37:56;;;;;;;4.25;1.70;;;;;;;1.19;100.00;98552.41;3176814;23;20036;-77
2023/03/28 00:39:13;;;;;;;3.35;1.85;;;;;;;1.14;100.00;98551.50;3176296;23;20036;-78
2023/03/28 00:40:34;;;;;;;2.15;1.20;;;;;;;1.32;100.00;98550.84;3176835;23;20068;-77
2023/03/28 00:41:51;;;;;;;3.83;1.63;;;;;;;1.27;100.00;98542.19;3176595;23;20022;-77
2023/03/28 00:43:12;;;;;;;3.88;1.65;;;;;;;1.19;100.00;98546.38;3176360;23;20036;-77
2023/03/28 00:44:51;;;;;;;2.38;1.48;;;;;;;1.31;100.00;98545.69;3176495;23;21146;-77
2023/03/28 00:46:37;;;;;;;3.65;1.48;;;;;;;1.44;100.00;98539.81;3176914;23;20026;-78
2023/03/28 00:48:06;;;;;;;2.20;1.38;;;;;;;1.45;100.00;98543.22;3176515;23;20075;-77
2023/03/28 00:49:24;;;;;;;2.58;1.30;;;;;;;1.41;100.00;98537.19;3177503;23;20049;-77
2023/03/28 00:50:47;;;;;;;3.72;1.67;;;;;;;1.37;100.00;98545.72;3176399;23;20058;-77
2023/03/28 00:52:03;;;;;;;3.20;1.55;;;;;;;1.31;100.00;98545.69;3176774;23;20243;-77
2023/03/28 00:53:22;;;;;;;2.85;1.63;;;;;;;1.38;100.00;98542.28;3177394;23;20096;-77
2023/03/28 00:54:39;;;;;;;3.53;1.70;;;;;;;1.38;100.00;98545.75;3176649;23;20048;-77
2023/03/28 00:56:00;;;;;;;2.33;1.50;;;;;;;1.17;100.00;98546.38;3177865;23;20025;-78
2023/03/28 00:57:16;;;;;;;2.58;1.52;;;;;;;1.07;100.00;98545.41;3176540;23;20469;-78
2023/03/28 00:58:37;;;;;;;4.07;1.60;;;;;;;0.85;100.00;98544.28;3177027;23;20029;-77
2023/03/28 00:59:53;;;;;;;3.15;1.63;;;;;;;0.97;100.00;98543.56;3176455;23;20071;-77
2023/03/28 01:01:14;;;;;;;2.45;1.50;;;;;;;1.12;100.00;98536.00;3176787;23;20025;-77
2023/03/28 01:02:30;;;;;;;1.63;1.23;;;;;;;1.21;100.00;98544.72;3176773;23;20049;-78
2023/03/28 01:03:55;;;;;;;2.45;1.40;;;;;;;1.19;100.00;98544.69;3178065;23;20021;-77
2023/03/28 01:05:12;;;;;;;2.60;1.50;;;;;;;1.22;100.00;98543.88;3176446;23;20146;-78
2023/03/28 01:06:31;;;;;;;2.97;1.67;;;;;;;1.22;100.00;98546.44;3176294;23;20045;-78
2023/03/28 01:07:51;;;;;;;4.53;1.90;;;;;;;1.29;100.00;98543.06;3176121;23;20033;-77
2023/03/28 01:09:08;;;;;;;2.30;1.50;;;;;;;1.29;100.00;98539.63;3176465;23;20025;-77
2023/03/28 01:10:24;;;;;;;2.58;1.27;;;;;;;1.32;100.00;98543.09;3176636;23;20567;-78
2023/03/28 01:11:43;;;;;;;2.17;1.48;;;;;;;1.27;100.00;98531.88;3176584;23;20025;-77
2023/03/28 01:13:00;;;;;;;2.65;1.52;;;;;;;1.33;100.00;98538.81;3176393;23;20025;-77
2023/03/28 01:14:20;;;;;;;1.63;1.30;;;;;;;1.13;100.00;98536.88;3176791;23;20032;-77
2023/03/28 01:15:36;;;;;;;3.63;1.50;;;;;;;1.13;100.00;98536.88;3176278;23;20465;-77
2023/03/28 01:16:55;;;;;;;2.47;1.80;;;;;;;1.36;100.00;98544.00;3176641;23;20057;-77
2023/03/28 01:18:11;;;;;;;3.85;1.63;;;;;;;1.28;100.00;98538.75;3176561;23;20461;-77
2023/03/28 01:20:02;;;;;;;3.17;1.42;;;;;;;1.18;100.00;98537.81;3176494;23;20026;-77
2023/03/28 01:21:36;;;;;;;1.90;1.23;;;;;;;1.34;100.00;98536.25;3176419;23;20033;-77
2023/03/28 01:23:23;;;;;;;3.58;1.58;;;;;;;1.52;100.00;98534.72;3176854;23;20076;-77
2023/03/28 01:24:47;;;;;;;5.65;1.33;;;;;;;1.49;100.00;98540.69;3176585;23;20060;-77
2023/03/28 01:26:31;;;;;;;3.38;1.40;;;;;;;1.40;100.00;98530.31;3176355;23;20025;-77
2023/03/28 01:28:01;;;;;;;1.70;1.08;;;;;;;1.24;100.00;98537.84;3176714;23;20078;-77
2023/03/28 01:29:34;;;;;;;1.98;1.17;;;;;;;1.41;100.00;98534.63;3176446;23;20034;-77
2023/03/28 01:31:08;;;;;;;1.88;1.33;;;;;;;1.52;100.00;98537.28;3177290;23;20457;-77
2023/03/28 01:32:55;;;;;;;2.30;1.13;;;;;;;1.75;100.00;98540.09;3176663;23;20068;-77
2023/03/28 01:34:38;;;;;;;2.95;1.30;;;;;;;1.71;100.00;98533.19;3176853;23;20036;-77
2023/03/28 01:36:13;;;;;;;4.00;1.25;;;;;;;1.69;100.00;98540.91;3176977;23;20032;-77
2023/03/28 01:37:38;;;;;;;5.60;1.10;;;;;;;1.77;100.00;98529.78;3176370;23;20036;-77
2023/03/28 01:39:01;;;;;;;2.58;0.93;;;;;;;1.55;100.00;98535.63;3176467;23;20021;-77
2023/03/28 01:40:23;;;;;;;2.97;1.10;;;;;;;1.66;100.00;98537.41;3176423;23;20022;-77
2023/03/28 01:41:55;;;;;;;1.63;1.00;;;;;;;1.61;100.00;98531.34;3176517;23;20092;-76
2023/03/28 01:43:41;;;;;;;4.38;1.20;;;;;;;1.54;100.00;98541.63;3176159;23;20529;-77
2023/03/28 01:45:02;;;;;;;0.70;0.70;;;;;;;1.57;100.00;98538.19;3176416;23;20028;-77
2023/03/28 01:46:26;;;;;;;1.10;0.80;;;;;;;1.65;100.00;98539.16;3176167;23;20025;-77
2023/03/28 01:47:55;;;;;;;0.60;0.57;;;;;;;1.64;100.00;98531.38;3183945;23;20033;-77
2023/03/28 01:49:55;;;;;;;1.27;0.98;;;;;;;1.60;100.00;98537.38;3191508;23;20032;-76
2023/03/28 01:51:38;;;;;;;2.17;1.00;;;;;;;1.82;100.00;98538.44;3158885;23;20073;-76
2023/03/28 01:53:15;;;;;;;1.67;0.60;;;;;;;1.97;99.38;98532.53;3158995;23;20021;-77
2023/03/28 01:54:53;;;;;;;2.70;1.00;;;;;;;1.82;99.46;98538.44;3160079;23;20026;-77
2023/03/28 01:56:21;;;;;;;3.25;1.13;;;;;;;2.01;96.93;98530.81;3159748;23;20106;-77
2023/03/28 01:57:45;;;;;;;2.92;0.65;;;;;;;1.83;99.17;98535.88;3191377;23;20041;-77
2023/03/28 01:59:19;;;;;;;2.50;0.90;;;;;;;1.64;99.09;98536.53;3191414;23;20051;-77
2023/03/28 02:00:46;;;;;;;4.65;0.88;;;;;;;1.65;99.57;98535.69;3191355;23;20025;-77
2023/03/28 02:02:18;;;;;;;1.38;1.02;;;;;;;1.93;96.97;98526.47;3191725;23;20482;-77
2023/03/28 02:03:36;;;;;;;1.45;1.02;;;;;;;2.02;96.22;98528.28;3175391;23;20520;-77
2023/03/28 02:04:54;;;;;;;4.50;1.13;;;;;;;2.07;96.08;98520.56;3182280;23;20624;-77
2023/03/28 02:06:11;;;;;;;1.10;0.75;;;;;;;1.92;96.92;98526.47;3192158;23;20021;-77
2023/03/28 02:07:27;;;;;;;2.03;1.17;;;;;;;2.04;94.94;98530.88;3191627;23;20501;-77
2023/03/28 02:08:45;;;;;;;1.38;1.10;;;;;;;1.85;98.00;98529.84;3191299;23;20025;-77
2023/03/28 02:10:03;;;;;;;1.40;0.98;;;;;;;2.09;95.96;98519.69;3191911;23;20032;-78
2023/03/28 02:11:19;;;;;;;2.15;1.10;;;;;;;1.99;96.25;98523.09;3191513;23;20534;-77
2023/03/28 02:12:39;;;;;;;2.17;1.00;;;;;;;1.97;96.11;98527.38;3191589;23;20463;-77
2023/03/28 02:14:03;;;;;;;2.65;1.20;;;;;;;2.00;95.77;98517.06;3191714;23;20056;-77
2023/03/28 02:15:21;;;;;;;1.90;0.82;;;;;;;1.77;95.43;98522.91;3191531;23;20052;-77
2023/03/28 02:16:40;;;;;;;1.67;0.95;;;;;;;1.92;96.27;98516.13;3191499;23;20057;-77
2023/03/28 02:18:07;;;;;;;3.95;0.85;;;;;;;1.85;95.23;98519.53;3192523;23;20029;-77
2023/03/28 02:19:23;;;;;;;0.93;0.63;;;;;;;1.78;95.23;98510.88;3191538;23;20024;-77
2023/03/28 02:20:41;;;;;;;1.38;0.70;;;;;;;1.83;93.55;98515.22;3191063;23;20096;-77
2023/03/28 02:22:13;;;;;;;1.80;0.70;;;;;;;1.86;91.45;98513.50;3192015;23;20029;-77
2023/03/28 02:23:38;;;;;;;0.70;0.70;;;;;;;1.80;95.05;98517.75;3191648;23;20049;-77
2023/03/28 02:24:55;;;;;;;0.50;0.50;;;;;;;1.63;93.43;98521.91;3191141;23;20028;-77
2023/03/28 02:26:11;;;;;;;2.28;0.77;;;;;;;1.50;93.48;98518.34;3191234;23;20482;-77
2023/03/28 02:27:27;;;;;;;4.10;0.80;;;;;;;1.62;93.62;98521.06;3191382;23;20112;-77
2023/03/28 02:28:45;;;;;;;0.70;0.60;;;;;;;1.58;94.73;98523.59;3191725;23;20565;-76
2023/03/28 02:30:01;;;;;;;2.78;0.73;;;;;;;1.68;94.99;98522.84;3174831;23;20122;-77
2023/03/28 02:31:16;;;;;;;0.65;0.40;;;;;;;1.73;92.46;98515.97;3181425;23;20056;-77
2023/03/28 02:32:35;;;;;;;4.90;1.00;;;;;;;1.85;91.09;98522.13;3191318;23;20032;-77
2023/03/28 02:33:51;;;;;;;0.55;0.32;;;;;;;1.76;92.12;98518.59;3191271;23;20025;-77
2023/03/28 02:35:07;;;;;;;1.05;0.73;;;;;;;1.86;92.70;98513.50;3191310;23;20536;-77
2023/03/28 02:36:42;;;;;;;2.70;0.75;;;;;;;1.73;91.57;98518.56;3174795;23;20128;-77
2023/03/28 02:38:09;;;;;;;2.05;0.70;;;;;;;1.77;92.77;98520.31;3185859;23;20021;-77
2023/03/28 02:39:43;;;;;;;0.93;0.60;;;;;;;1.67;93.52;98518.50;3191249;23;20044;-77
2023/03/28 02:41:18;;;;;;;0.68;0.38;;;;;;;1.86;92.51;98523.84;3191370;23;20076;-77
2023/03/28 02:42:50;;;;;;;3.20;0.65;;;;;;;1.87;92.51;98522.97;3191732;23;20055;-77
2023/03/28 02:44:13;;;;;;;1.30;0.80;;;;;;;1.71;93.30;98519.41;3191403;23;20033;-77
2023/03/28 02:45:47;;;;;;;1.58;0.77;;;;;;;1.81;92.84;98524.66;3191331;23;20056;-77
2023/03/28 02:47:24;;;;;;;6.13;1.95;;;;;;;1.88;92.10;98527.28;3191217;23;20021;-77
2023/03/28 02:48:55;;;;;;;0.80;0.60;;;;;;;1.71;90.71;98525.44;3191432;23;20052;-77
2023/03/28 02:50:29;;;;;;;0.30;0.30;;;;;;;1.87;90.20;98521.25;3191135;23;20032;-77
2023/03/28 02:51:50;;;;;;;0.30;0.30;;;;;;;1.74;90.96;98524.56;3191117;23;20032;-77
2023/03/28 02:53:21;;;;;;;1.17;0.45;;;;;;;1.87;88.70;98529.00;3191425;23;20499;-77
2023/03/28 02:54:48;;;;;;;0.50;0.50;;;;;;;1.75;89.29;98529.75;3174800;23;20026;-77
2023/03/28 02:56:08;;;;;;;1.42;0.93;;;;;;;1.68;86.68;98530.56;3184008;23;20070;-77
2023/03/28 02:57:47;;;;;;;0.22;0.22;;;;;;;1.69;87.29;98524.56;3191532;23;20045;-76
2023/03/28 02:59:26;;;;;;;0.52;0.52;;;;;;;1.78;86.53;98523.78;3191547;23;20076;-77
2023/03/28 03:00:42;;;;;;;1.38;0.77;;;;;;;1.79;86.69;98531.50;3192513;23;20402;-77
2023/03/28 03:01:58;;;;;;;7.38;1.30;;;;;;;1.71;87.34;98538.34;3175022;23;20084;-77
2023/03/28 03:03:15;;;;;;;0.95;0.50;;;;;;;1.88;87.89;98533.31;3181643;23;20168;-77
2023/03/28 03:04:31;;;;;;;0.32;0.30;;;;;;;1.86;86.41;98536.75;3191218;23;20021;-77
2023/03/28 03:05:46;;;;;;;0.50;0.50;;;;;;;1.83;88.53;98535.88;3191260;23;20025;-77
2023/03/28 03:07:02;;;;;;;1.10;0.45;;;;;;;1.82;85.66;98528.97;3192418;23;20021;-77
2023/03/28 03:08:17;;;;;;;1.75;0.68;;;;;;;1.75;83.56;98532.34;3192244;23;20021;-78
2023/03/28 03:09:33;;;;;;;1.08;0.52;;;;;;;1.72;84.09;98536.59;3193047;23;20548;-77
2023/03/28 03:10:49;;;;;;;2.15;1.10;;;;;;;1.77;82.68;98538.38;3192200;23;20333;-77
2023/03/28 03:12:05;;;;;;;0.85;0.60;;;;;;;1.83;82.59;98535.00;3192172;23;20465;-77
2023/03/28 03:13:21;;;;;;;1.10;0.90;;;;;;;1.89;81.92;98536.75;3192309;23;20470;-77
2023/03/28 03:14:37;;;;;;;1.13;0.60;;;;;;;1.95;82.99;98529.06;3192354;23;20049;-77
2023/03/28 03:15:53;;;;;;;0.20;0.20;;;;;;;1.90;82.37;98531.63;3192205;23;20028;-77
2023/03/28 03:17:08;;;;;;;0.90;0.55;;;;;;;1.98;82.55;98532.53;3193715;23;20025;-77
2023/03/28 03:18:25;;;;;;;0.98;0.80;;;;;;;1.62;82.02;98525.34;3190814;23;20053;-77
2023/03/28 03:19:42;;;;;;;2.22;0.57;;;;;;;1.73;81.06;98531.47;3192361;23;20025;-77
2023/03/28 03:21:00;;;;;;;2.20;0.60;;;;;;;1.79;82.17;98528.94;3191942;23;20468;-77
2023/03/28 03:22:16;;;;;;;0.47;0.35;;;;;;;1.87;81.21;98523.84;3192597;23;20021;-77
2023/03/28 03:23:31;;;;;;;1.30;0.47;;;;;;;1.91;81.64;98523.03;3192937;23;20032;-77
2023/03/28 03:24:49;;;;;;;2.85;0.57;;;;;;;2.03;81.33;98526.56;3192351;23;20028;-77
2023/03/28 03:26:05;;;;;;;0.82;0.43;;;;;;;1.98;81.05;98522.22;3192264;23;20039;-78
2023/03/28 03:27:21;;;;;;;1.65;0.50;;;;;;;1.87;81.90;98530.72;3192393;23;20021;-77
2023/03/28 03:28:36;;;;;;;1.63;0.60;;;;;;;1.86;80.38;98527.28;3192398;23;20032;-77
2023/03/28 03:29:52;;;;;;;1.48;0.30;;;;;;;2.01;80.99;98534.28;3192109;23;20088;-77
2023/03/28 03:31:08;;;;;;;0.40;0.40;;;;;;;1.94;80.53;98520.47;3191632;23;20025;-77
2023/03/28 03:32:23;;;;;;;3.58;0.85;;;;;;;1.95;78.85;98529.06;3192194;23;20389;-77
2023/03/28 03:36:30;;;;;;;0.20;0.20;;;;;;;1.86;80.49;98537.59;3210692;23;20035;-82
2023/03/28 03:37:46;;;;;;;0.40;0.40;;;;;;;1.97;80.51;98535.13;3223681;23;20051;-82
2023/03/28 03:39:02;;;;;;;0.50;0.35;;;;;;;1.88;79.08;98538.47;3224376;23;20022;-81
2023/03/28 03:40:18;;;;;;;1.20;0.20;;;;;;;2.01;78.99;98543.75;3224192;23;20529;-82
2023/03/28 03:41:33;;;;;;;1.73;0.50;;;;;;;2.00;78.79;98536.84;3224058;23;20024;-83
2023/03/28 03:42:49;;;;;;;0.50;0.47;;;;;;;2.00;79.25;98545.47;3224392;23;20024;-82
2023/03/28 03:44:04;;;;;;;1.67;0.50;;;;;;;2.10;79.36;98552.44;3224109;23;20038;-83
2023/03/28 03:45:21;;;;;;;2.22;0.50;;;;;;;2.17;77.87;98545.63;3224180;23;20024;-82
2023/03/28 03:46:36;;;;;;;0.65;0.50;;;;;;;2.19;77.08;98555.94;3224075;23;20020;-81
2023/03/28 03:47:52;;;;;;;0.70;0.47;;;;;;;2.09;77.30;98553.28;3224919;23;20096;-84
2023/03/28 03:49:09;;;;;;;2.88;0.30;;;;;;;1.93;78.64;98546.25;3224385;23;20338;-82
2023/03/28 03:50:24;;;;;;;1.38;0.60;;;;;;;1.95;79.39;98555.75;3224543;23;20026;-82
2023/03/28 03:51:40;;;;;;;1.95;0.68;;;;;;;1.98;80.67;98562.69;3224413;23;20024;-82
2023/03/28 03:52:59;;;;;;;2.53;0.65;;;;;;;2.16;79.88;98550.75;3224297;23;20356;-82
2023/03/28 03:54:15;;;;;;;1.33;0.60;;;;;;;2.17;77.78;98549.91;3224400;23;20419;-82
2023/03/28 03:55:31;;;;;;;0.80;0.30;;;;;;;2.06;76.48;98545.50;3224422;23;20024;-81
2023/03/28 03:56:52;;;;;;;0.32;0.32;;;;;;;2.09;77.63;98542.94;3224166;23;20099;-81
2023/03/28 03:58:08;;;;;;;2.92;0.80;;;;;;;2.14;77.16;98542.13;3202297;23;20337;-83
2023/03/28 03:59:23;;;;;;;1.13;0.40;;;;;;;2.05;78.03;98545.50;3213959;23;20055;-82
2023/03/28 04:00:39;;;;;;;2.70;0.70;;;;;;;2.15;76.46;98549.03;3224192;23;20031;-82
2023/03/28 04:01:55;;;;;;;1.55;0.60;;;;;;;2.23;76.05;98544.75;3224698;23;20024;-82
2023/03/28 04:03:11;;;;;;;2.05;0.85;;;;;;;2.33;74.99;98550.88;3225178;23;20027;-82
2023/03/28 04:04:27;;;;;;;4.22;0.82;;;;;;;2.62;74.32;98545.88;3226919;22;20050;-82
2023/03/28 04:05:43;;;;;;;2.92;0.70;;;;;;;2.59;74.49;98552.78;3225848;23;20019;-81
2023/03/28 04:06:59;;;;;;;0.70;0.45;;;;;;;2.23;77.63;98549.94;3225636;23;20074;-82
2023/03/28 04:08:15;;;;;;;0.93;0.60;;;;;;;2.49;75.70;98547.53;3225742;22;20028;-81
2023/03/28 04:09:30;;;;;;;2.03;0.73;;;;;;;2.58;73.16;98549.31;3225741;23;20020;-81
2023/03/28 04:10:46;;;;;;;3.25;0.85;;;;;;;2.48;73.01;98545.81;3226271;23;20024;-82
2023/03/28 04:12:04;;;;;;;3.55;0.82;;;;;;;2.53;73.82;98545.84;3225382;23;20066;-82
2023/03/28 04:13:19;;;;;;;2.40;0.90;;;;;;;2.54;75.95;98543.25;3225872;23;20359;-82
2023/03/28 04:14:35;;;;;;;2.40;0.70;;;;;;;2.51;75.97;98555.28;3225522;23;20023;-82
2023/03/28 04:15:51;;;;;;;2.20;0.63;;;;;;;2.52;75.73;98557.06;3225448;23;20778;-82
2023/03/28 04:17:06;;;;;;;0.80;0.70;;;;;;;2.49;73.55;98560.47;3225521;23;20399;-82
2023/03/28 04:18:21;;;;;;;0.70;0.50;;;;;;;2.36;78.02;98559.50;3225300;23;20030;-80
2023/03/28 04:19:38;;;;;;;2.33;0.77;;;;;;;2.21;76.58;98559.41;3226418;23;20503;-81
2023/03/28 04:20:57;;;;;;;3.45;0.70;;;;;;;2.37;76.03;98563.81;3225621;23;20031;-82
2023/03/28 04:22:13;;;;;;;1.55;0.68;;;;;;;2.08;77.64;98581.69;3225420;23;20048;-81
2023/03/28 04:23:29;;;;;;;2.70;0.60;;;;;;;2.02;78.65;98569.59;3225108;23;20087;-82
2023/03/28 04:24:44;;;;;;;4.32;1.15;;;;;;;1.95;81.79;98579.00;3225383;23;20024;-83
2023/03/28 04:26:01;;;;;;;2.15;0.70;;;;;;;1.96;83.92;98572.13;3208394;23;20021;-85
2023/03/28 04:27:16;;;;;;;1.10;0.52;;;;;;;1.55;87.58;98563.13;3209097;23;20063;-83
2023/03/28 04:28:32;;;;;;;0.82;0.50;;;;;;;1.82;88.05;98578.03;3209847;23;20032;-83
2023/03/28 04:29:48;;;;;;;5.82;0.70;;;;;;;1.87;88.36;98569.47;3210002;23;20021;-82
2023/03/28 04:31:04;;;;;;;3.88;0.85;;;;;;;2.02;89.97;98573.88;3208736;23;20012;-82
2023/03/28 04:32:20;;;;;;;0.68;0.40;;;;;;;1.78;86.02;98568.50;3205553;23;20259;-82
2023/03/28 04:33:35;;;;;;;2.88;0.80;;;;;;;1.63;87.22;98564.09;3209862;23;20020;-82
2023/03/28 04:34:51;;;;;;;4.57;0.90;;;;;;;1.65;87.44;98577.84;3209651;23;20048;-81
2023/03/28 04:36:08;;;;;;;1.67;0.77;;;;;;;1.73;88.10;98577.06;3209473;23;20464;-82
2023/03/28 04:37:24;;;;;;;2.92;0.47;;;;;;;1.95;85.41;98586.75;3208495;23;20521;-82
2023/03/28 04:38:40;;;;;;;2.65;0.90;;;;;;;1.92;83.82;98581.56;3210055;23;20021;-82
2023/03/28 04:39:55;;;;;;;0.75;0.43;;;;;;;1.94;85.84;98584.13;3208226;23;20497;-84
2023/03/28 04:41:12;;;;;;;0.98;0.55;;;;;;;2.12;83.68;98570.53;3209656;23;20024;-82
2023/03/28 04:42:28;;;;;;;2.88;0.57;;;;;;;2.01;83.57;98575.59;3209657;23;20023;-82
2023/03/28 04:43:47;;;;;;;0.70;0.50;;;;;;;2.01;85.20;98573.03;3209175;23;20028;-84
2023/03/28 04:45:05;;;;;;;1.05;0.50;;;;;;;2.02;83.17;98571.28;3208639;23;20035;-82
2023/03/28 04:46:20;;;;;;;2.25;0.68;;;;;;;1.61;85.82;98582.97;3215884;23;20016;-82
2023/03/28 04:47:39;;;;;;;1.52;0.50;;;;;;;1.54;84.42;98584.63;3225462;23;20024;-78
2023/03/28 04:48:55;;;;;;;5.10;0.95;;;;;;;1.54;84.77;98582.03;3225284;23;20460;-79
2023/03/28 04:50:11;;;;;;;0.85;0.45;;;;;;;1.67;84.73;98594.22;3225669;23;20479;-79
2023/03/28 04:51:27;;;;;;;0.93;0.57;;;;;;;1.75;86.59;98594.28;3225384;23;20102;-79
2023/03/28 04:52:43;;;;;;;1.55;0.40;;;;;;;1.72;87.85;98601.13;3225197;23;20024;-80
2023/03/28 04:53:58;;;;;;;1.27;0.40;;;;;;;1.72;87.40;98614.91;3225760;23;20020;-80
2023/03/28 04:55:14;;;;;;;3.13;0.70;;;;;;;2.04;83.58;98605.78;3225736;23;20074;-81
2023/03/28 04:56:30;;;;;;;3.33;0.80;;;;;;;1.81;84.32;98607.25;3225512;23;20048;-80
2023/03/28 04:57:45;;;;;;;1.55;0.40;;;;;;;1.73;88.11;98615.78;3225294;23;20368;-80
2023/03/28 04:59:02;;;;;;;1.27;0.98;;;;;;;1.36;93.41;98621.38;3225273;23;20094;-79
2023/03/28 05:00:17;;;;;;;2.03;0.60;;;;;;;1.77;91.54;98620.13;3225949;23;20024;-84
2023/03/28 05:01:33;;;;;;;0.75;0.35;;;;;;;1.49;95.17;98614.69;3225446;23;20402;-82
2023/03/28 05:02:58;;;;;;;2.50;0.63;;;;;;;1.63;94.86;98623.44;3225420;23;20031;-83
2023/03/28 05:04:16;;;;;;;3.55;0.90;;;;;;;1.38;94.86;98637.75;3225567;23;20024;-82
2023/03/28 05:05:32;;;;;;;3.70;0.50;;;;;;;1.71;92.69;98623.53;3208797;23;20464;-82
2023/03/28 05:06:48;;;;;;;3.08;0.70;;;;;;;1.54;91.97;98626.78;3214793;23;20020;-82
2023/03/28 05:08:04;;;;;;;0.45;0.40;;;;;;;1.58;94.47;98634.56;3224186;23;20082;-82
2023/03/28 05:09:21;;;;;;;4.85;0.68;;;;;;;1.35;98.76;98629.97;3225551;23;20020;-81
2023/03/28 05:10:37;;;;;;;1.00;0.25;;;;;;;1.35;100.00;98638.59;3223746;23;20044;-81
2023/03/28 05:11:53;;;;;;;5.15;1.00;;;;;;;1.17;100.00;98634.06;3225162;23;20024;-81
2023/03/28 05:13:09;;;;;;;5.20;1.00;;;;;;;1.08;100.00;98633.94;3225592;23;20519;-81
2023/03/28 05:14:24;;;;;;;4.15;0.57;;;;;;;1.31;100.00;98651.44;3225200;23;20094;-81
2023/03/28 05:15:41;;;;;;;3.85;1.05;;;;;;;1.25;100.00;98650.50;3225345;23;20024;-82
2023/03/28 05:16:56;;;;;;;2.40;0.90;;;;;;;1.19;100.00;98646.97;3225414;23;20016;-81
2023/03/28 05:18:12;;;;;;;0.85;0.60;;;;;;;1.17;100.00;98644.38;3224966;23;20031;-81
2023/03/28 05:19:28;;;;;;;1.50;0.60;;;;;;;1.17;100.00;98639.22;3225141;23;20024;-81
2023/03/28 05:20:43;;;;;;;1.05;0.50;;;;;;;1.06;100.00;98646.81;3225336;23;20027;-81
2023/03/28 05:22:00;;;;;;;2.35;1.23;;;;;;;1.18;100.00;98640.97;3224754;23;20099;-81
2023/03/28 05:23:16;;;;;;;1.67;0.40;;;;;;;1.28;100.00;98647.09;3224845;23;20550;-81
2023/03/28 05:24:31;;;;;;;4.18;0.70;;;;;;;1.09;100.00;98641.72;3224522;23;20024;-81
2023/03/28 05:25:51;;;;;;;0.50;0.40;;;;;;;0.99;100.00;98652.72;3225129;23;20028;-81
2023/03/28 05:27:07;;;;;;;0.35;0.30;;;;;;;1.13;100.00;98658.94;3224888;23;20027;-80
2023/03/28 05:28:22;;;;;;;1.08;0.50;;;;;;;0.98;100.00;98659.63;3225405;23;20031;-81
2023/03/28 05:29:38;;;;;;;0.50;0.50;;;;;;;0.88;100.00;98662.03;3225421;23;20020;-81
2023/03/28 05:30:53;;;;;;;1.48;0.77;;;;;;;0.66;100.00;98661.72;3225121;23;20623;-81
2023/03/28 05:32:11;;;;;;;1.08;0.70;;;;;;;0.69;100.00;98661.75;3225132;23;20071;-80
2023/03/28 05:33:27;;;;;;;3.78;0.60;;;;;;;0.67;100.00;98666.88;3225019;23;20055;-80
2023/03/28 05:34:42;;;;;;;1.10;0.60;;;;;;;0.72;100.00;98674.69;3225115;23;20020;-81
2023/03/28 05:36:01;;;;;;;1.65;0.70;;;;;;;0.67;100.00;98666.88;3224750;23;20033;-81
2023/03/28 05:37:17;;;;;;;5.45;0.80;;;;;;;0.55;100.00;98671.81;3224381;23;20020;-81
2023/03/28 05:38:32;;;;;;;1.75;0.70;;;;;;;0.76;100.00;98670.44;3225122;23;20826;-81
2023/03/28 05:39:48;;;;;;;5.45;0.70;;;;;;;0.93;100.00;98675.84;3225029;23;20024;-81
2023/03/28 05:41:04;;;;;;;1.83;1.10;;;;;;;0.90;100.00;98674.09;3225235;23;20050;-80
2023/03/28 05:42:20;;;;;;;1.63;0.90;;;;;;;0.92;100.00;98682.72;3224898;23;20031;-81
2023/03/28 05:43:35;;;;;;;2.78;1.55;;;;;;;0.80;100.00;98686.00;3224963;23;20040;-83
2023/03/28 05:44:51;;;;;;;0.90;0.80;;;;;;;0.83;100.00;98683.44;3224838;23;20024;-83
2023/03/28 05:46:06;;;;;;;6.18;0.82;;;;;;;0.76;100.00;98688.50;3224905;23;20031;-82
2023/03/28 05:47:22;;;;;;;2.95;1.02;;;;;;;0.92;100.00;98685.28;3224921;23;20023;-82
2023/03/28 05:48:38;;;;;;;0.47;0.45;;;;;;;0.95;100.00;98695.66;3225129;23;20459;-85
2023/03/28 05:49:53;;;;;;;3.22;0.70;;;;;;;1.24;100.00;98694.34;3225456;23;20030;-85
2023/03/28 05:51:09;;;;;;;2.13;0.90;;;;;;;1.23;100.00;98685.72;3225049;23;20817;-85
2023/03/28 05:52:24;;;;;;;5.88;1.10;;;;;;;1.35;100.00;98699.63;3225512;23;20082;-86
2023/03/28 05:53:40;;;;;;;2.80;1.10;;;;;;;1.20;100.00;98696.00;3225206;23;20031;-86
2023/03/28 05:54:56;;;;;;;3.63;0.70;;;;;;;1.26;100.00;98695.22;3224975;23;20031;-86
2023/03/28 05:56:12;;;;;;;0.93;0.63;;;;;;;1.29;100.00;98704.72;3224981;23;20093;-86
2023/03/28 05:57:27;;;;;;;2.88;0.68;;;;;;;1.32;100.00;98697.03;3224894;23;20024;-86
2023/03/28 05:58:42;;;;;;;0.60;0.60;;;;;;;1.16;100.00;98698.50;3225022;23;20016;-88
2023/03/28 05:59:58;;;;;;;1.25;0.65;;;;;;;1.06;100.00;98707.84;3225003;23;20040;-87
2023/03/28 06:01:17;;;;;;;0.52;0.40;;;;;;;1.21;100.00;98707.19;3209088;23;20333;-87
2023/03/28 06:02:32;;;;;;;6.43;0.88;;;;;;;1.21;100.00;98709.78;3215147;23;20047;-86
2023/03/28 06:03:49;;;;;;;2.40;0.80;;;;;;;1.23;100.00;98711.50;3225049;23;20024;-85
2023/03/28 06:05:06;;;;;;;0.73;0.52;;;;;;;1.44;100.00;98712.66;3224852;23;20017;-87
2023/03/28 06:06:21;;;;;;;3.63;0.90;;;;;;;1.39;100.00;98719.47;3225004;23;20020;-87
2023/03/28 06:07:38;;;;;;;5.05;1.05;;;;;;;1.30;100.00;98711.63;3224708;23;20475;-87
2023/03/28 06:08:53;;;;;;;2.33;0.60;;;;;;;1.31;100.00;98715.94;3225470;23;20035;-86
2023/03/28 06:10:11;;;;;;;1.55;0.40;;;;;;;1.31;100.00;98726.25;3224802;23;20024;-86
2023/03/28 06:11:27;;;;;;;3.45;0.70;;;;;;;1.51;100.00;98726.50;3225114;23;20020;-85
2023/03/28 06:12:43;;;;;;;1.33;0.65;;;;;;;1.44;100.00;98733.31;3224545;23;20024;-84
2023/03/28 06:13:58;;;;;;;2.15;0.60;;;;;;;1.51;98.06;98727.38;3224924;23;20024;-85
2023/03/28 06:15:14;;;;;;;3.15;0.80;;;;;;;1.72;94.28;98735.38;3208181;23;20036;-85
2023/03/28 06:16:29;;;;;;;2.90;1.00;;;;;;;1.72;90.22;98728.50;3215177;23;20078;-85
2023/03/28 06:17:45;;;;;;;2.28;0.63;;;;;;;2.16;85.67;98721.25;3224793;23;20024;-85
2023/03/28 06:19:01;;;;;;;1.33;0.68;;;;;;;2.04;79.03;98724.56;3212559;23;20396;-84
2023/03/28 06:20:16;;;;;;;3.42;0.85;;;;;;;2.45;85.18;98725.81;3224721;23;20026;-84